Time;durP1;ratioP1;P1;durP2;ratioP2;P2;SDS_P1;SDS_P2;PMS_P1;PMS_P2;Temp;Humidity;BMP_temperature;BMP_pressure;BME280_temperature;BME280_humidity;BME280_pressure;Samples;Min_cycle;Max_cycle;Signal;HPM_P1;HPM_P2
2023/08/28 00:01:05;;;;;;;16.33;12.32;;;24.90;67.20;;;;;;5118389;28;20019;-66
2023/08/28 00:03:37;;;;;;;15.20;11.48;;;24.90;67.30;;;;;;5118670;28;20020;-66
2023/08/28 00:06:03;;;;;;;18.92;12.20;;;25.00;67.40;;;;;;5118696;28;20023;-66
2023/08/28 00:08:29;;;;;;;17.80;12.07;;;24.90;67.50;;;;;;5118637;28;20035;-66
2023/08/28 00:10:55;;;;;;;18.75;11.90;;;24.90;67.70;;;;;;5118060;28;20053;-66
2023/08/28 00:13:21;;;;;;;15.25;12.05;;;24.90;67.90;;;;;;5118499;28;20019;-66
2023/08/28 00:15:47;;;;;;;17.67;12.68;;;24.90;67.90;;;;;;5117956;28;20027;-66
2023/08/28 00:18:13;;;;;;;16.17;12.20;;;24.80;68.20;;;;;;5117938;28;20095;-66
2023/08/28 00:20:40;;;;;;;16.42;11.93;;;24.80;68.30;;;;;;5117814;28;20055;-66
2023/08/28 00:23:06;;;;;;;15.75;11.68;;;24.70;68.30;;;;;;5117883;28;20062;-66
2023/08/28 00:25:32;;;;;;;15.27;11.40;;;24.80;68.40;;;;;;5117652;28;20357;-66
2023/08/28 00:27:58;;;;;;;15.52;11.57;;;24.80;68.50;;;;;;5117734;28;20047;-66
2023/08/28 00:30:24;;;;;;;15.90;11.85;;;24.70;68.60;;;;;;5117705;28;20080;-66
2023/08/28 00:32:53;;;;;;;17.48;12.10;;;24.70;68.60;;;;;;5117665;28;20016;-66
2023/08/28 00:35:18;;;;;;;16.20;13.02;;;24.70;68.70;;;;;;5117469;28;20027;-66
2023/08/28 00:37:45;;;;;;;15.90;12.02;;;24.70;68.80;;;;;;5117568;28;20031;-66
2023/08/28 00:40:13;;;;;;;17.48;12.63;;;24.70;68.80;;;;;;5116834;28;20042;-66
2023/08/28 00:42:41;;;;;;;17.20;12.95;;;24.70;68.80;;;;;;5117392;28;20024;-66
2023/08/28 00:45:07;;;;;;;15.35;12.02;;;24.80;68.80;;;;;;5117363;28;20352;-66
2023/08/28 00:47:37;;;;;;;19.67;13.30;;;24.70;69.00;;;;;;5117288;28;20507;-66
2023/08/28 00:50:08;;;;;;;19.63;13.52;;;24.70;69.40;;;;;;5117859;28;20016;-66
2023/08/28 00:52:34;;;;;;;19.15;12.85;;;24.70;70.20;;;;;;5117317;28;20048;-66
2023/08/28 00:55:01;;;;;;;19.17;14.30;;;24.60;70.70;;;;;;5117362;28;20341;-66
2023/08/28 00:57:32;;;;;;;19.92;13.73;;;24.50;71.60;;;;;;5117713;28;20031;-66
2023/08/28 00:59:58;;;;;;;16.30;13.57;;;24.40;72.00;;;;;;5117611;28;20024;-66
2023/08/28 01:02:25;;;;;;;16.55;12.18;;;24.40;72.30;;;;;;5117491;28;20059;-67
2023/08/28 01:04:52;;;;;;;17.02;12.73;;;24.20;72.10;;;;;;5117152;28;20032;-66
2023/08/28 01:07:27;;;;;;;16.65;11.98;;;24.20;72.20;;;;;;5117189;28;20095;-66
2023/08/28 01:10:20;;;;;;;15.07;11.57;;;24.10;72.40;;;;;;5116353;28;20020;-66
2023/08/28 01:13:04;;;;;;;13.75;10.57;;;24.20;72.30;;;;;;5117342;28;20020;-66
2023/08/28 01:15:32;;;;;;;13.98;10.80;;;24.10;72.30;;;;;;5117320;28;20034;-66
2023/08/28 01:18:05;;;;;;;17.10;11.77;;;24.30;72.10;;;;;;5117026;28;20039;-66
2023/08/28 01:20:35;;;;;;;13.82;10.68;;;24.30;72.10;;;;;;5116577;28;20026;-66
2023/08/28 01:23:21;;;;;;;15.70;11.68;;;24.30;72.10;;;;;;5116939;28;20066;-66
2023/08/28 01:25:48;;;;;;;16.02;13.02;;;24.30;72.40;;;;;;5116069;28;20026;-66
2023/08/28 01:28:14;;;;;;;19.23;13.65;;;24.30;73.00;;;;;;5117284;28;20023;-66
2023/08/28 01:30:40;;;;;;;16.42;13.73;;;24.20;72.70;;;;;;5116754;28;20110;-66
2023/08/28 01:33:06;;;;;;;20.55;13.80;;;24.20;73.80;;;;;;5116420;28;20098;-66
2023/08/28 01:35:33;;;;;;;21.48;15.38;;;24.10;73.80;;;;;;5116396;28;20023;-66
2023/08/28 01:38:19;;;;;;;17.80;13.75;;;24.10;73.90;;;;;;5116406;28;20035;-66
2023/08/28 01:41:09;;;;;;;20.55;14.10;;;24.00;74.40;;;;;;5115765;28;20441;-66
2023/08/28 01:43:38;;;;;;;19.35;14.55;;;24.00;75.10;;;;;;5115673;28;20034;-66
2023/08/28 01:46:05;;;;;;;19.70;13.90;;;23.90;74.50;;;;;;5116234;28;20102;-66
2023/08/28 01:48:35;;;;;;;19.50;14.32;;;23.90;74.70;;;;;;5116218;28;20044;-66
2023/08/28 01:51:02;;;;;;;17.70;14.60;;;23.90;75.30;;;;;;5116451;28;20075;-66
2023/08/28 01:53:28;;;;;;;19.38;14.82;;;23.80;75.30;;;;;;5115938;28;20044;-66
2023/08/28 01:56:09;;;;;;;19.60;14.48;;;23.80;75.40;;;;;;5116625;28;20031;-66
2023/08/28 01:58:52;;;;;;;19.55;14.98;;;23.70;75.70;;;;;;5116671;28;20034;-66
2023/08/28 02:01:18;;;;;;;19.17;14.63;;;23.70;75.90;;;;;;5116567;28;20027;-66
2023/08/28 02:03:44;;;;;;;17.20;13.43;;;23.70;76.10;;;;;;5115960;28;20081;-66
2023/08/28 02:06:10;;;;;;;26.42;14.05;;;23.60;76.10;;;;;;5116258;28;20445;-66
2023/08/28 02:08:36;;;;;;;17.27;13.20;;;23.60;76.20;;;;;;5116519;28;20015;-66
2023/08/28 02:11:03;;;;;;;15.43;12.75;;;23.70;76.30;;;;;;5116175;28;20040;-66
2023/08/28 02:13:29;;;;;;;17.00;12.82;;;23.70;76.20;;;;;;5115816;28;20440;-66
2023/08/28 02:15:55;;;;;;;18.23;13.60;;;23.80;76.00;;;;;;5116384;28;20447;-66
2023/08/28 02:18:21;;;;;;;18.90;14.02;;;23.80;76.20;;;;;;5115857;28;20095;-66
2023/08/28 02:20:48;;;;;;;17.45;13.88;;;23.80;76.40;;;;;;5114770;28;20069;-66
2023/08/28 02:23:16;;;;;;;19.67;14.57;;;23.80;76.70;;;;;;5115776;28;20034;-66
2023/08/28 02:25:47;;;;;;;16.98;13.98;;;23.80;77.20;;;;;;5115735;28;20055;-66
2023/08/28 02:28:14;;;;;;;19.08;13.45;;;23.70;77.20;;;;;;5115726;28;20126;-66
2023/08/28 02:30:40;;;;;;;18.25;14.30;;;23.70;76.90;;;;;;5115723;28;20326;-66
2023/08/28 02:33:06;;;;;;;19.38;14.50;;;23.60;76.70;;;;;;5115707;28;20048;-66
2023/08/28 02:35:32;;;;;;;25.35;16.58;;;23.60;77.00;;;;;;5115839;28;20081;-66
2023/08/28 02:37:59;;;;;;;24.08;17.00;;;23.70;77.20;;;;;;5116167;28;20020;-66
2023/08/28 02:40:27;;;;;;;22.05;16.65;;;23.60;78.00;;;;;;5115966;28;20413;-66
2023/08/28 02:42:55;;;;;;;25.40;16.27;;;23.50;78.60;;;;;;5115600;28;20016;-66
2023/08/28 02:45:22;;;;;;;22.13;16.00;;;23.50;78.90;;;;;;5115328;28;20473;-66
2023/08/28 02:48:03;;;;;;;24.52;16.00;;;23.50;78.20;;;;;;5116132;28;20092;-66
2023/08/28 02:50:30;;;;;;;21.80;16.15;;;23.50;77.80;;;;;;5117358;28;20023;-66
2023/08/28 02:52:56;;;;;;;20.55;14.95;;;23.50;77.90;;;;;;5119285;28;20047;-66
2023/08/28 02:55:26;;;;;;;21.10;15.48;;;23.50;77.90;;;;;;5119748;28;20027;-66
2023/08/28 02:57:54;;;;;;;21.83;14.90;;;23.50;77.60;;;;;;5119524;28;20032;-66
2023/08/28 03:00:20;;;;;;;24.63;15.88;;;23.50;77.70;;;;;;5119344;28;20028;-65
2023/08/28 03:02:47;;;;;;;27.15;16.75;;;23.40;78.70;;;;;;5119874;27;20030;-65
2023/08/28 03:05:12;;;;;;;23.77;15.95;;;23.50;78.20;;;;;;5119370;27;20023;-66
2023/08/28 03:07:39;;;;;;;26.33;16.15;;;23.30;78.60;;;;;;5119339;28;20020;-66
2023/08/28 03:10:05;;;;;;;28.38;16.80;;;23.20;78.40;;;;;;5119549;28;20062;-66
2023/08/28 03:12:31;;;;;;;22.35;14.20;;;23.10;78.60;;;;;;5119220;28;20051;-66
2023/08/28 03:14:57;;;;;;;17.23;12.20;;;23.10;77.60;;;;;;5119153;27;20393;-66
2023/08/28 03:17:23;;;;;;;17.50;13.23;;;22.90;77.20;;;;;;5119677;28;20348;-66
2023/08/28 03:19:50;;;;;;;18.15;13.40;;;22.80;77.70;;;;;;5119624;28;20053;-66
2023/08/28 03:22:16;;;;;;;19.35;13.80;;;22.80;77.80;;;;;;5118003;28;20027;-66
2023/08/28 03:24:42;;;;;;;16.65;11.95;;;22.70;78.30;;;;;;5119450;28;20027;-65
2023/08/28 03:27:08;;;;;;;19.08;14.02;;;22.70;77.30;;;;;;5118988;28;20030;-66
2023/08/28 03:29:33;;;;;;;21.83;16.00;;;22.70;76.90;;;;;;5119205;28;20019;-66
2023/08/28 03:31:59;;;;;;;19.98;16.05;;;22.90;77.60;;;;;;5118887;28;20038;-66
2023/08/28 03:34:25;;;;;;;21.05;16.75;;;22.90;77.80;;;;;;5118886;28;20047;-66
2023/08/28 03:36:51;;;;;;;21.38;16.05;;;23.00;78.00;;;;;;5119022;28;20028;-66
2023/08/28 03:39:17;;;;;;;22.50;16.08;;;23.10;77.80;;;;;;5117736;28;20028;-66
2023/08/28 03:41:43;;;;;;;22.52;16.55;;;23.20;78.10;;;;;;5118849;28;20028;-66
2023/08/28 03:44:09;;;;;;;22.00;16.83;;;23.20;78.60;;;;;;5118567;28;20472;-66
2023/08/28 03:46:35;;;;;;;22.73;17.13;;;23.10;78.60;;;;;;5118623;28;20031;-66
2023/08/28 03:49:03;;;;;;;23.52;16.63;;;23.00;78.90;;;;;;5118463;28;20464;-66
2023/08/28 03:51:29;;;;;;;20.80;15.80;;;22.90;79.00;;;;;;5118476;28;20352;-66
2023/08/28 03:53:55;;;;;;;22.27;15.57;;;22.90;79.00;;;;;;5118937;28;20119;-66
2023/08/28 03:56:22;;;;;;;26.20;18.08;;;22.90;79.00;;;;;;5118397;28;20099;-66
2023/08/28 03:58:48;;;;;;;20.13;15.77;;;22.90;79.10;;;;;;5118572;28;20032;-66
2023/08/28 04:01:14;;;;;;;22.23;16.48;;;22.90;79.20;;;;;;5118525;28;20019;-66
2023/08/28 04:03:40;;;;;;;22.33;16.58;;;22.90;79.20;;;;;;5117588;27;20352;-66
2023/08/28 04:06:08;;;;;;;19.67;15.07;;;22.90;79.20;;;;;;5118732;28;20024;-66
2023/08/28 04:08:34;;;;;;;21.63;16.15;;;22.90;79.20;;;;;;5117178;28;20437;-66
2023/08/28 04:11:00;;;;;;;20.75;15.40;;;22.90;79.30;;;;;;5118137;28;20098;-66
2023/08/28 04:13:26;;;;;;;18.48;14.38;;;22.90;79.60;;;;;;5118530;28;20115;-66
2023/08/28 04:15:52;;;;;;;19.75;14.02;;;22.80;79.40;;;;;;5118243;28;20023;-66
2023/08/28 04:18:18;;;;;;;19.73;14.88;;;22.80;79.40;;;;;;5118010;28;20027;-66
2023/08/28 04:20:43;;;;;;;17.27;14.40;;;22.80;79.30;;;;;;5117843;28;20213;-66
2023/08/28 04:23:09;;;;;;;21.77;17.33;;;22.90;79.20;;;;;;5118441;28;20019;-66
2023/08/28 04:25:35;;;;;;;23.42;16.48;;;22.80;79.20;;;;;;5117750;28;20348;-66
2023/08/28 04:28:01;;;;;;;19.77;15.43;;;22.80;79.80;;;;;;5118047;28;20068;-66
2023/08/28 04:30:27;;;;;;;18.83;14.70;;;22.80;79.60;;;;;;5118523;28;20028;-66
2023/08/28 04:32:53;;;;;;;20.92;16.33;;;22.80;79.60;;;;;;5117573;28;20020;-66
2023/08/28 04:35:19;;;;;;;19.55;16.15;;;22.90;80.10;;;;;;5117724;28;20073;-66
2023/08/28 04:37:45;;;;;;;22.55;16.33;;;22.90;80.00;;;;;;5117885;28;20024;-66
2023/08/28 04:40:11;;;;;;;19.08;15.18;;;22.90;79.90;;;;;;5117543;28;20449;-66
2023/08/28 04:42:37;;;;;;;22.55;16.25;;;22.90;79.80;;;;;;5117470;28;20023;-66
2023/08/28 04:45:03;;;;;;;27.73;18.73;;;22.90;80.20;;;;;;5117608;28;20020;-66
2023/08/28 04:47:29;;;;;;;25.40;19.00;;;23.10;80.40;;;;;;5117685;28;20020;-65
2023/08/28 04:49:55;;;;;;;21.95;15.77;;;23.10;80.50;;;;;;5117892;28;20020;-66
2023/08/28 04:52:22;;;;;;;24.73;17.52;;;23.10;80.00;;;;;;5117055;28;20453;-66
2023/08/28 04:54:48;;;;;;;19.10;15.48;;;23.20;79.90;;;;;;5117437;28;20341;-66
2023/08/28 04:57:14;;;;;;;21.58;15.95;;;23.20;79.80;;;;;;5117203;28;20042;-66
2023/08/28 04:59:40;;;;;;;23.98;18.08;;;23.40;79.70;;;;;;5116806;28;20023;-66
2023/08/28 05:02:06;;;;;;;26.50;19.85;;;23.40;80.00;;;;;;5116423;28;20032;-66
2023/08/28 05:04:32;;;;;;;24.20;18.40;;;23.40;79.90;;;;;;5117149;28;20444;-66
2023/08/28 05:06:58;;;;;;;25.75;19.38;;;23.30;79.50;;;;;;5116984;28;20030;-66
2023/08/28 05:09:24;;;;;;;26.13;19.38;;;23.30;79.80;;;;;;5115959;28;20027;-66
2023/08/28 05:11:50;;;;;;;25.10;18.08;;;23.20;79.70;;;;;;5117147;28;20074;-66
2023/08/28 05:14:16;;;;;;;24.83;17.60;;;23.20;79.50;;;;;;5115836;28;20475;-66
2023/08/28 05:16:42;;;;;;;24.23;17.23;;;23.20;79.50;;;;;;5116535;28;20035;-69
2023/08/28 05:19:08;;;;;;;22.05;16.58;;;23.20;79.50;;;;;;5116730;28;20019;-69
2023/08/28 05:21:34;;;;;;;23.40;17.25;;;23.20;79.80;;;;;;5116817;28;20032;-67
2023/08/28 05:24:00;;;;;;;21.45;16.38;;;23.20;79.90;;;;;;5115571;28;20390;-66
2023/08/28 05:26:26;;;;;;;25.08;17.65;;;23.20;80.00;;;;;;5115652;28;20110;-67
2023/08/28 05:28:52;;;;;;;22.83;17.30;;;23.10;79.90;;;;;;5116592;28;20071;-67
2023/08/28 05:31:18;;;;;;;22.52;17.30;;;23.10;79.90;;;;;;5102913;27;20448;-66
2023/08/28 05:33:44;;;;;;;23.52;17.88;;;23.10;80.20;;;;;;5104347;28;20067;-66
2023/08/28 05:36:09;;;;;;;26.90;19.52;;;23.20;80.20;;;;;;5104794;28;20028;-66
2023/08/28 05:38:35;;;;;;;23.92;17.33;;;23.10;80.40;;;;;;5116246;28;20030;-67
2023/08/28 05:41:01;;;;;;;23.08;17.30;;;23.00;80.10;;;;;;5116383;28;20023;-67
2023/08/28 05:43:26;;;;;;;20.67;16.45;;;23.10;80.30;;;;;;5115946;28;20042;-66
2023/08/28 05:45:52;;;;;;;22.77;17.60;;;23.00;80.20;;;;;;5115895;28;20345;-66
2023/08/28 05:48:18;;;;;;;24.98;19.55;;;23.10;80.40;;;;;;5116081;28;20024;-62
2023/08/28 05:50:48;;;;;;;29.90;18.77;;;23.00;80.80;;;;;;5115942;28;20034;-61
2023/08/28 05:53:14;;;;;;;26.67;19.45;;;23.00;81.10;;;;;;5100090;28;20106;-61
2023/08/28 05:55:40;;;;;;;23.67;18.70;;;23.00;81.10;;;;;;5103116;28;21629;-62
2023/08/28 05:58:05;;;;;;;24.45;18.25;;;22.90;81.20;;;;;;5115605;28;20103;-69
2023/08/28 06:00:31;;;;;;;26.35;19.63;;;22.90;81.10;;;;;;5116858;27;20379;-63
2023/08/28 06:02:57;;;;;;;27.50;19.63;;;22.90;81.30;;;;;;5119215;27;20035;-63
2023/08/28 06:05:23;;;;;;;26.92;19.58;;;22.90;81.60;;;;;;5114911;27;20449;-61
2023/08/28 06:07:49;;;;;;;34.28;23.30;;;22.90;81.10;;;;;;5114499;28;20463;-61
2023/08/28 06:10:19;;;;;;;29.42;20.25;;;22.90;81.40;;;;;;5115759;27;20030;-62
2023/08/28 06:12:46;;;;;;;28.90;21.33;;;23.00;81.60;;;;;;5114315;28;20016;-67
2023/08/28 06:15:23;;;;;;;29.15;20.85;;;22.90;81.80;;;;;;5110008;28;20036;-68
2023/08/28 06:17:53;;;;;;;29.75;20.88;;;22.90;81.80;;;;;;5124339;27;20470;-62
2023/08/28 06:20:19;;;;;;;27.33;20.63;;;22.90;82.00;;;;;;5115991;28;20384;-68
2023/08/28 06:22:46;;;;;;;34.80;23.27;;;22.90;82.10;;;;;;5114596;28;20030;-63
2023/08/28 06:25:33;;;;;;;31.92;22.95;;;22.90;82.90;;;;;;5107175;28;20433;-67
2023/08/28 06:29:02;;;;;;;29.05;22.70;;;22.90;82.60;;;;;;5113849;28;20027;-66
2023/08/28 06:31:41;;;;;;;32.70;23.40;;;22.90;82.70;;;;;;5115387;28;20092;-65
2023/08/28 06:34:10;;;;;;;29.17;22.58;;;22.90;82.90;;;;;;5117907;27;20032;-65
2023/08/28 06:36:41;;;;;;;31.80;24.42;;;22.90;82.90;;;;;;5119073;27;20131;-65
2023/08/28 06:39:11;;;;;;;31.52;22.05;;;22.90;83.20;;;;;;5113497;27;20039;-64
2023/08/28 06:42:05;;;;;;;30.00;22.63;;;23.00;82.70;;;;;;5116632;28;20059;-64
2023/08/28 06:44:42;;;;;;;36.70;23.45;;;23.20;82.90;;;;;;5113239;28;20458;-65
2023/08/28 06:48:08;;;;;;;32.65;22.73;;;23.20;82.50;;;;;;5118864;28;20020;-68
2023/08/28 06:51:28;;;;;;;31.42;22.33;;;23.30;82.40;;;;;;5115702;28;20016;-64
2023/08/28 06:57:39;;;;;;;30.48;22.83;;;23.30;82.40;;;;;;5118590;28;20031;-69
2023/08/28 07:00:06;;;;;;;29.48;22.73;;;23.40;82.20;;;;;;5116604;27;20095;-64
2023/08/28 07:02:32;;;;;;;29.08;22.92;;;23.40;82.00;;;;;;5117772;27;20042;-65
2023/08/28 07:04:58;;;;;;;26.88;21.38;;;23.50;82.00;;;;;;5117263;27;20372;-60
2023/08/28 07:07:24;;;;;;;30.35;23.02;;;23.60;81.70;;;;;;5118096;27;20020;-67
2023/08/28 07:09:50;;;;;;;29.10;21.88;;;23.60;81.70;;;;;;5116034;27;20031;-69
2023/08/28 07:12:16;;;;;;;32.85;23.05;;;23.60;81.50;;;;;;5119111;27;20027;-59
2023/08/28 07:14:41;;;;;;;29.92;22.50;;;23.60;81.90;;;;;;5117632;27;20453;-60
2023/08/28 07:17:07;;;;;;;28.23;22.00;;;23.60;81.60;;;;;;5119594;27;20437;-68
2023/08/28 07:19:33;;;;;;;31.52;23.08;;;23.60;81.60;;;;;;5115883;28;20088;-69
2023/08/28 07:22:00;;;;;;;29.33;22.73;;;23.60;81.40;;;;;;5117248;27;20031;-69
2023/08/28 07:24:29;;;;;;;27.23;21.05;;;23.60;81.60;;;;;;5114821;28;20023;-60
2023/08/28 07:26:55;;;;;;;29.85;23.33;;;23.60;81.50;;;;;;5112409;28;20483;-62
2023/08/28 07:29:20;;;;;;;27.80;21.60;;;23.60;81.40;;;;;;5115342;27;20063;-62
2023/08/28 07:31:46;;;;;;;26.70;19.98;;;23.60;81.50;;;;;;5119166;27;20027;-64
2023/08/28 07:34:12;;;;;;;33.20;24.00;;;23.60;81.40;;;;;;5119036;27;20028;-62
2023/08/28 07:36:38;;;;;;;29.85;21.90;;;23.60;81.60;;;;;;5117413;27;20120;-62
2023/08/28 07:39:04;;;;;;;32.35;24.15;;;23.60;81.30;;;;;;5114291;28;20032;-62
2023/08/28 07:41:30;;;;;;;31.17;22.83;;;23.60;82.00;;;;;;5115897;28;20123;-61
2023/08/28 07:43:55;;;;;;;27.30;22.20;;;23.50;81.90;;;;;;5115565;28;20110;-63
2023/08/28 07:46:21;;;;;;;28.40;20.90;;;23.50;81.80;;;;;;5113878;28;20039;-61
2023/08/28 07:48:50;;;;;;;35.13;22.48;;;23.50;81.60;;;;;;5112549;28;20031;-62
2023/08/28 07:51:16;;;;;;;27.67;20.60;;;23.50;81.60;;;;;;5115713;28;20042;-62
2023/08/28 07:53:42;;;;;;;27.05;21.38;;;23.50;81.60;;;;;;5114519;28;20048;-60
2023/08/28 07:56:07;;;;;;;25.85;19.85;;;23.60;81.40;;;;;;5118041;28;20398;-63
2023/08/28 07:58:33;;;;;;;26.77;21.40;;;23.70;81.30;;;;;;5109210;28;20028;-63
2023/08/28 08:01:00;;;;;;;28.67;21.55;;;23.90;81.20;;;;;;5097302;28;20035;-64
2023/08/28 08:03:26;;;;;;;26.35;20.13;;;24.00;81.00;;;;;;5098073;28;20024;-62
2023/08/28 08:06:00;;;;;;;27.33;20.60;;;24.10;80.60;;;;;;5098064;28;20333;-71
2023/08/28 08:08:26;;;;;;;29.40;21.85;;;24.20;80.20;;;;;;5110249;28;20043;-71
2023/08/28 08:10:51;;;;;;;28.83;20.75;;;24.30;79.80;;;;;;5115098;27;20357;-70
2023/08/28 08:13:18;;;;;;;29.45;21.88;;;24.30;79.70;;;;;;5114404;28;20031;-70
2023/08/28 08:15:44;;;;;;;26.65;20.55;;;24.30;79.90;;;;;;5114052;28;20019;-62
2023/08/28 08:18:09;;;;;;;27.10;18.98;;;24.30;79.20;;;;;;5115023;28;20092;-62
2023/08/28 08:20:35;;;;;;;23.60;17.42;;;24.30;77.70;;;;;;5114766;28;20387;-61
2023/08/28 08:23:05;;;;;;;23.88;17.17;;;24.30;76.50;;;;;;5112866;27;20153;-69
2023/08/28 08:25:31;;;;;;;21.98;16.95;;;24.10;77.30;;;;;;5112362;28;20104;-62
2023/08/28 08:27:57;;;;;;;22.13;17.50;;;24.10;77.60;;;;;;5097269;28;20112;-60
2023/08/28 08:30:23;;;;;;;22.10;16.50;;;24.10;77.80;;;;;;5114355;27;20043;-61
2023/08/28 08:32:49;;;;;;;18.88;15.82;;;24.20;77.70;;;;;;5108786;28;20032;-61
2023/08/28 08:35:15;;;;;;;22.35;17.10;;;24.30;77.70;;;;;;5099331;28;20024;-70
2023/08/28 08:37:41;;;;;;;22.20;16.25;;;24.40;77.40;;;;;;5113207;28;20126;-70
2023/08/28 08:40:13;;;;;;;21.83;15.57;;;24.40;76.90;;;;;;5117135;28;20059;-70
2023/08/28 08:45:09;;;;;;;21.90;16.95;;;24.50;75.70;;;;;;5351507;22;20133;-58
2023/08/28 08:47:41;;;;;;;23.10;15.60;;;24.60;74.40;;;;;;5031617;28;20033;-62
2023/08/28 08:50:09;;;;;;;22.17;15.95;;;24.60;73.90;;;;;;5036545;28;20040;-61
2023/08/28 08:52:46;;;;;;;23.77;16.52;;;24.60;74.50;;;;;;5036890;28;20040;-60
2023/08/28 08:55:18;;;;;;;21.65;15.43;;;24.70;73.90;;;;;;5035050;28;20029;-61
2023/08/28 08:57:47;;;;;;;18.17;15.63;;;24.70;74.20;;;;;;5035035;28;20026;-60
2023/08/28 09:00:18;;;;;;;20.77;14.90;;;24.90;74.50;;;;;;5030654;28;20120;-60
2023/08/28 09:02:46;;;;;;;20.38;15.50;;;25.00;74.40;;;;;;5035534;28;20104;-62
2023/08/28 09:05:16;;;;;;;23.02;15.85;;;25.10;73.40;;;;;;5023065;28;20057;-60
2023/08/28 09:07:44;;;;;;;23.00;15.27;;;25.20;73.10;;;;;;5016848;28;20058;-59
2023/08/28 09:10:12;;;;;;;19.15;15.48;;;25.30;73.10;;;;;;5016456;28;20026;-61
2023/08/28 09:12:38;;;;;;;17.92;13.57;;;25.20;73.10;;;;;;5017834;28;20464;-61
2023/08/28 09:15:05;;;;;;;24.83;15.93;;;25.20;73.00;;;;;;5016940;28;20057;-59
2023/08/28 09:17:31;;;;;;;21.05;15.80;;;25.10;74.00;;;;;;5017752;28;20018;-60
2023/08/28 09:20:16;;;;;;;21.05;15.55;;;25.00;73.90;;;;;;5023339;28;20037;-58
2023/08/28 09:22:53;;;;;;;21.25;15.30;;;24.90;74.70;;;;;;5016561;28;20068;-62
2023/08/28 09:25:21;;;;;;;20.20;16.02;;;24.90;75.20;;;;;;5024663;28;20480;-62
2023/08/28 09:27:49;;;;;;;20.55;14.90;;;24.90;75.30;;;;;;5017924;28;20033;-63
2023/08/28 09:30:29;;;;;;;22.35;15.52;;;24.90;75.40;;;;;;5034332;28;20022;-62
2023/08/28 09:32:59;;;;;;;27.95;15.60;;;25.00;74.40;;;;;;5033570;28;20025;-58
2023/08/28 09:35:27;;;;;;;19.33;14.57;;;25.00;74.80;;;;;;5032689;28;20466;-61
2023/08/28 09:38:01;;;;;;;21.48;14.57;;;25.00;74.80;;;;;;5022417;28;20041;-59
2023/08/28 09:40:36;;;;;;;20.33;14.98;;;24.90;74.80;;;;;;5017601;28;20402;-63
2023/08/28 09:43:17;;;;;;;20.52;14.32;;;24.90;75.20;;;;;;5019625;28;20061;-61
2023/08/28 09:45:45;;;;;;;21.65;15.57;;;24.80;74.60;;;;;;5019462;28;20042;-60
2023/08/28 09:48:12;;;;;;;21.40;15.32;;;24.70;75.20;;;;;;5020455;28;20026;-62
2023/08/28 09:50:40;;;;;;;24.17;14.27;;;24.60;75.00;;;;;;5019702;28;20022;-60
2023/08/28 09:53:08;;;;;;;19.17;14.70;;;24.60;74.70;;;;;;5030987;28;20025;-62
2023/08/28 09:55:48;;;;;;;23.55;15.68;;;24.70;75.10;;;;;;5034434;28;20076;-60
2023/08/28 09:58:15;;;;;;;22.42;14.70;;;24.70;75.30;;;;;;5016801;28;20034;-59
2023/08/28 10:00:44;;;;;;;24.15;14.88;;;24.70;75.30;;;;;;5015773;28;20379;-61
2023/08/28 10:03:11;;;;;;;24.95;15.00;;;24.80;75.10;;;;;;5016806;28;20026;-61
2023/08/28 10:05:40;;;;;;;19.00;13.57;;;24.90;74.40;;;;;;5026427;28;20022;-60
2023/08/28 10:08:11;;;;;;;17.73;11.32;;;24.70;74.40;;;;;;5022934;28;20018;-60
2023/08/28 10:10:40;;;;;;;16.35;10.40;;;24.70;73.40;;;;;;5028208;28;20123;-62
2023/08/28 10:13:09;;;;;;;15.90;9.75;;;24.70;73.50;;;;;;5033812;28;20509;-61
2023/08/28 10:15:54;;;;;;;18.55;9.95;;;24.80;73.00;;;;;;5032223;28;20434;-61
2023/08/28 10:18:51;;;;;;;17.88;9.80;;;24.80;72.80;;;;;;5022084;28;20068;-61
2023/08/28 10:21:18;;;;;;;16.15;10.10;;;24.80;73.50;;;;;;5018856;28;20033;-63
2023/08/28 10:23:45;;;;;;;17.85;9.52;;;24.90;73.20;;;;;;5017120;28;20045;-58
2023/08/28 10:26:15;;;;;;;12.52;8.73;;;24.80;73.20;;;;;;5018973;28;20038;-60
2023/08/28 10:28:43;;;;;;;14.15;8.43;;;24.60;73.20;;;;;;5016830;28;20097;-59
2023/08/28 10:31:11;;;;;;;18.58;8.68;;;24.50;72.60;;;;;;5026559;28;20365;-61
2023/08/28 10:33:38;;;;;;;15.02;8.35;;;24.40;72.50;;;;;;5018118;28;20038;-60
2023/08/28 10:36:08;;;;;;;17.45;8.45;;;24.30;73.20;;;;;;5016848;28;20048;-61
2023/08/28 10:38:35;;;;;;;14.68;8.48;;;24.20;73.40;;;;;;5028965;28;20034;-59
2023/08/28 10:41:03;;;;;;;16.05;8.85;;;24.00;74.10;;;;;;5020938;28;20022;-60
2023/08/28 10:43:31;;;;;;;20.23;8.95;;;23.70;74.80;;;;;;5016870;28;20030;-59
2023/08/28 10:46:16;;;;;;;13.75;9.25;;;23.40;76.40;;;;;;5014625;28;20509;-62
2023/08/28 10:48:45;;;;;;;15.90;9.60;;;23.20;77.00;;;;;;5015890;28;20046;-60
2023/08/28 10:51:24;;;;;;;17.83;9.77;;;23.20;77.50;;;;;;5014446;28;20054;-61
2023/08/28 10:53:51;;;;;;;18.92;11.25;;;23.10;78.30;;;;;;5014974;28;20022;-60
2023/08/28 10:56:17;;;;;;;22.60;10.30;;;22.80;79.70;;;;;;5015548;28;20025;-62
2023/08/28 10:58:48;;;;;;;19.35;10.80;;;22.80;80.50;;;;;;5015248;28;20402;-59
2023/08/28 11:01:16;;;;;;;18.15;10.45;;;22.70;80.30;;;;;;5015634;28;20088;-60
2023/08/28 11:03:51;;;;;;;17.42;9.43;;;22.30;81.60;;;;;;5014195;28;20064;-61
2023/08/28 11:06:40;;;;;;;15.07;9.00;;;22.20;81.20;;;;;;5015446;28;20037;-60
2023/08/28 11:09:28;;;;;;;14.95;7.78;;;22.00;81.10;;;;;;5014244;28;20454;-61
2023/08/28 11:12:00;;;;;;;16.33;6.63;;;21.90;80.40;;;;;;5014289;28;20562;-62
2023/08/28 11:14:32;;;;;;;13.47;7.20;;;21.70;80.80;;;;;;5019344;28;20033;-60
2023/08/28 11:17:17;;;;;;;11.55;6.43;;;21.60;80.70;;;;;;5019318;28;20026;-59
2023/08/28 11:19:55;;;;;;;15.18;7.72;;;21.40;81.70;;;;;;5018741;28;20022;-61
2023/08/28 11:22:29;;;;;;;17.08;7.55;;;21.30;81.90;;;;;;5019155;28;20458;-62
2023/08/28 11:24:56;;;;;;;12.40;7.95;;;21.20;82.30;;;;;;5018514;28;20029;-58
2023/08/28 11:27:45;;;;;;;15.75;8.43;;;21.20;82.20;;;;;;5019073;28;20038;-59
2023/08/28 11:30:13;;;;;;;15.68;7.25;;;21.20;82.40;;;;;;5018840;28;20022;-60
2023/08/28 11:32:42;;;;;;;12.95;6.20;;;21.20;81.90;;;;;;5018516;28;20057;-59
2023/08/28 11:35:10;;;;;;;11.57;6.10;;;21.40;81.10;;;;;;5017420;28;20038;-61
2023/08/28 11:37:39;;;;;;;12.63;6.50;;;21.50;80.30;;;;;;5018938;28;20057;-61
2023/08/28 11:40:09;;;;;;;14.45;6.32;;;21.80;80.60;;;;;;5018289;28;20028;-59
2023/08/28 11:42:37;;;;;;;12.73;6.40;;;22.00;80.20;;;;;;5017451;28;20037;-60
2023/08/28 11:45:05;;;;;;;11.93;6.55;;;22.30;79.90;;;;;;5018024;28;20037;-58
2023/08/28 11:47:32;;;;;;;15.20;5.85;;;22.50;80.20;;;;;;5018542;28;20105;-58
2023/08/28 11:49:59;;;;;;;11.27;5.32;;;22.80;79.70;;;;;;5018444;28;20022;-59
2023/08/28 11:52:25;;;;;;;14.38;5.57;;;22.90;77.80;;;;;;5018428;28;20057;-61
2023/08/28 11:54:58;;;;;;;9.68;5.65;;;23.10;77.50;;;;;;5018302;28;20022;-61
2023/08/28 11:57:25;;;;;;;8.57;4.93;;;23.20;78.10;;;;;;5017245;28;20048;-59
2023/08/28 11:59:52;;;;;;;10.63;5.18;;;23.30;77.50;;;;;;5018267;28;20111;-59
2023/08/28 12:02:19;;;;;;;10.48;5.05;;;23.40;77.30;;;;;;5017898;28;20041;-61
2023/08/28 12:04:50;;;;;;;13.43;5.28;;;23.40;76.70;;;;;;5017877;28;20040;-59
2023/08/28 12:07:27;;;;;;;10.68;5.57;;;23.40;76.60;;;;;;5018196;28;20028;-59
2023/08/28 12:09:55;;;;;;;12.13;5.35;;;23.40;75.80;;;;;;5017968;28;20107;-61
2023/08/28 12:12:23;;;;;;;10.68;4.40;;;23.50;76.00;;;;;;5017765;28;20036;-62
2023/08/28 12:14:49;;;;;;;9.15;4.43;;;23.50;73.40;;;;;;5018201;28;20026;-58
2023/08/28 12:17:21;;;;;;;9.82;4.50;;;23.60;73.50;;;;;;5018242;28;20026;-61
2023/08/28 12:19:51;;;;;;;9.77;3.90;;;23.70;71.80;;;;;;5017514;28;20030;-61
2023/08/28 12:22:20;;;;;;;8.15;3.95;;;23.90;72.60;;;;;;5017536;28;20025;-60
2023/08/28 12:24:51;;;;;;;7.93;3.17;;;24.00;70.90;;;;;;5016857;28;20026;-62
2023/08/28 12:27:27;;;;;;;7.88;3.60;;;24.00;70.10;;;;;;5017521;28;20030;-60
2023/08/28 12:29:56;;;;;;;6.15;3.65;;;24.10;70.20;;;;;;5017734;28;20072;-59
2023/08/28 12:32:23;;;;;;;7.82;3.40;;;24.10;69.70;;;;;;5017634;28;20033;-60
2023/08/28 12:34:49;;;;;;;6.43;3.50;;;24.20;68.60;;;;;;5016598;28;20034;-59
2023/08/28 12:37:16;;;;;;;8.57;3.95;;;24.30;69.10;;;;;;5017594;28;20022;-61
2023/08/28 12:39:50;;;;;;;5.50;3.25;;;24.40;69.60;;;;;;5016297;28;20065;-59
2023/08/28 12:42:21;;;;;;;8.00;3.65;;;24.40;66.50;;;;;;5016799;28;20415;-61
2023/08/28 12:44:49;;;;;;;7.22;3.15;;;24.50;67.60;;;;;;5016794;28;20061;-60